Аэропорт: Актау. Актау

ICAO: UATE

METAR:
2018/07/22 20:00
UATE 222000Z 36004MPS CAVOK 25/15 Q1006 R30/0///70 NOSIG RMK QFE753/1004
METAR:
2018/07/22 18:37
TAF UATE 221703Z 2218/2318 VRB02MPS 9999 SCT040CB TX34/2310Z TN23/2302Z